sensor_id;sensor_type;location;lat;lon;timestamp;P1;durP1;ratioP1;P2;durP2;ratioP2
76059;SDS011;64759;52.220;5.170;2023-05-07T00:00:33;33.65;;;25.67;;
76059;SDS011;64759;52.220;5.170;2023-05-07T00:02:59;35.33;;;24.77;;
76059;SDS011;64759;52.220;5.170;2023-05-07T00:05:25;31.02;;;23.88;;
76059;SDS011;64759;52.220;5.170;2023-05-07T00:07:51;29.90;;;24.08;;
76059;SDS011;64759;52.220;5.170;2023-05-07T00:10:17;33.15;;;22.95;;
76059;SDS011;64759;52.220;5.170;2023-05-07T00:12:43;31.98;;;22.27;;
76059;SDS011;64759;52.220;5.170;2023-05-07T00:15:09;31.25;;;22.65;;
76059;SDS011;64759;52.220;5.170;2023-05-07T00:17:35;29.88;;;21.90;;
76059;SDS011;64759;52.220;5.170;2023-05-07T00:20:00;29.25;;;21.77;;
76059;SDS011;64759;52.220;5.170;2023-05-07T00:22:26;28.73;;;22.80;;
76059;SDS011;64759;52.220;5.170;2023-05-07T00:24:52;29.50;;;21.00;;
76059;SDS011;64759;52.220;5.170;2023-05-07T00:27:18;27.00;;;20.45;;
76059;SDS011;64759;52.220;5.170;2023-05-07T00:29:43;23.80;;;19.30;;
76059;SDS011;64759;52.220;5.170;2023-05-07T00:32:09;25.00;;;18.58;;
76059;SDS011;64759;52.220;5.170;2023-05-07T00:34:34;24.95;;;19.50;;
76059;SDS011;64759;52.220;5.170;2023-05-07T00:37:00;22.85;;;18.13;;
76059;SDS011;64759;52.220;5.170;2023-05-07T00:39:26;19.70;;;16.25;;
76059;SDS011;64759;52.220;5.170;2023-05-07T00:41:51;26.02;;;20.70;;
76059;SDS011;64759;52.220;5.170;2023-05-07T00:44:17;23.27;;;19.20;;
76059;SDS011;64759;52.220;5.170;2023-05-07T00:46:44;25.13;;;17.48;;
76059;SDS011;64759;52.220;5.170;2023-05-07T00:49:10;24.23;;;16.05;;
76059;SDS011;64759;52.220;5.170;2023-05-07T00:51:36;19.42;;;15.55;;
76059;SDS011;64759;52.220;5.170;2023-05-07T00:54:02;19.70;;;15.57;;
76059;SDS011;64759;52.220;5.170;2023-05-07T00:56:28;19.42;;;17.40;;
76059;SDS011;64759;52.220;5.170;2023-05-07T00:58:53;19.75;;;15.57;;
76059;SDS011;64759;52.220;5.170;2023-05-07T01:01:20;22.30;;;16.23;;
76059;SDS011;64759;52.220;5.170;2023-05-07T01:03:45;16.33;;;14.63;;
76059;SDS011;64759;52.220;5.170;2023-05-07T01:06:10;19.35;;;16.70;;
76059;SDS011;64759;52.220;5.170;2023-05-07T01:08:39;19.92;;;14.95;;
76059;SDS011;64759;52.220;5.170;2023-05-07T01:11:06;23.48;;;15.77;;
76059;SDS011;64759;52.220;5.170;2023-05-07T01:13:33;17.80;;;14.15;;
76059;SDS011;64759;52.220;5.170;2023-05-07T01:16:01;22.60;;;15.10;;
76059;SDS011;64759;52.220;5.170;2023-05-07T01:18:27;16.42;;;14.45;;
76059;SDS011;64759;52.220;5.170;2023-05-07T01:20:54;17.80;;;15.88;;
76059;SDS011;64759;52.220;5.170;2023-05-07T01:23:23;16.67;;;14.27;;
76059;SDS011;64759;52.220;5.170;2023-05-07T01:25:54;17.75;;;14.80;;
76059;SDS011;64759;52.220;5.170;2023-05-07T01:28:21;19.00;;;13.45;;
76059;SDS011;64759;52.220;5.170;2023-05-07T01:30:52;14.60;;;13.07;;
76059;SDS011;64759;52.220;5.170;2023-05-07T01:33:21;18.50;;;14.38;;
76059;SDS011;64759;52.220;5.170;2023-05-07T01:35:48;19.05;;;14.38;;
76059;SDS011;64759;52.220;5.170;2023-05-07T01:38:16;22.50;;;14.60;;
76059;SDS011;64759;52.220;5.170;2023-05-07T01:40:44;18.83;;;13.93;;
76059;SDS011;64759;52.220;5.170;2023-05-07T01:43:11;16.98;;;14.23;;
76059;SDS011;64759;52.220;5.170;2023-05-07T01:45:37;21.85;;;14.82;;
76059;SDS011;64759;52.220;5.170;2023-05-07T01:48:03;20.50;;;15.18;;
76059;SDS011;64759;52.220;5.170;2023-05-07T01:50:29;16.80;;;14.38;;
76059;SDS011;64759;52.220;5.170;2023-05-07T01:52:55;17.17;;;15.10;;
76059;SDS011;64759;52.220;5.170;2023-05-07T01:55:22;16.63;;;14.50;;
76059;SDS011;64759;52.220;5.170;2023-05-07T01:57:48;19.08;;;15.25;;
76059;SDS011;64759;52.220;5.170;2023-05-07T02:00:13;17.60;;;14.65;;
76059;SDS011;64759;52.220;5.170;2023-05-07T02:02:41;16.13;;;14.48;;
76059;SDS011;64759;52.220;5.170;2023-05-07T02:05:15;19.17;;;13.88;;
76059;SDS011;64759;52.220;5.170;2023-05-07T02:07:41;15.77;;;13.00;;
76059;SDS011;64759;52.220;5.170;2023-05-07T02:10:07;15.00;;;12.00;;
76059;SDS011;64759;52.220;5.170;2023-05-07T02:12:33;15.75;;;13.32;;
76059;SDS011;64759;52.220;5.170;2023-05-07T02:14:58;19.92;;;13.50;;
76059;SDS011;64759;52.220;5.170;2023-05-07T02:17:24;17.85;;;14.55;;
76059;SDS011;64759;52.220;5.170;2023-05-07T02:19:51;16.88;;;14.15;;
76059;SDS011;64759;52.220;5.170;2023-05-07T02:22:16;16.92;;;13.10;;
76059;SDS011;64759;52.220;5.170;2023-05-07T02:24:43;15.75;;;12.88;;
76059;SDS011;64759;52.220;5.170;2023-05-07T02:27:09;16.17;;;13.88;;
76059;SDS011;64759;52.220;5.170;2023-05-07T02:29:36;16.50;;;13.90;;
76059;SDS011;64759;52.220;5.170;2023-05-07T02:32:01;21.05;;;14.05;;
76059;SDS011;64759;52.220;5.170;2023-05-07T02:34:27;17.02;;;13.45;;
76059;SDS011;64759;52.220;5.170;2023-05-07T02:36:52;24.65;;;15.80;;
76059;SDS011;64759;52.220;5.170;2023-05-07T02:39:22;15.90;;;13.38;;
76059;SDS011;64759;52.220;5.170;2023-05-07T02:41:47;16.95;;;13.23;;
76059;SDS011;64759;52.220;5.170;2023-05-07T02:44:13;16.60;;;13.65;;
76059;SDS011;64759;52.220;5.170;2023-05-07T02:46:38;17.98;;;13.48;;
76059;SDS011;64759;52.220;5.170;2023-05-07T02:49:08;16.17;;;11.77;;
76059;SDS011;64759;52.220;5.170;2023-05-07T02:51:33;18.88;;;12.80;;
76059;SDS011;64759;52.220;5.170;2023-05-07T02:54:01;14.15;;;12.65;;
76059;SDS011;64759;52.220;5.170;2023-05-07T02:56:28;16.20;;;12.15;;
76059;SDS011;64759;52.220;5.170;2023-05-07T02:58:53;15.00;;;12.88;;
76059;SDS011;64759;52.220;5.170;2023-05-07T03:01:21;16.20;;;12.93;;
76059;SDS011;64759;52.220;5.170;2023-05-07T03:04:02;16.55;;;12.18;;
76059;SDS011;64759;52.220;5.170;2023-05-07T03:06:28;22.52;;;12.90;;
76059;SDS011;64759;52.220;5.170;2023-05-07T03:08:53;15.15;;;12.80;;
76059;SDS011;64759;52.220;5.170;2023-05-07T03:11:20;15.40;;;12.65;;
76059;SDS011;64759;52.220;5.170;2023-05-07T03:13:45;14.38;;;12.35;;
76059;SDS011;64759;52.220;5.170;2023-05-07T03:16:11;13.77;;;12.32;;
76059;SDS011;64759;52.220;5.170;2023-05-07T03:18:37;15.68;;;11.85;;
76059;SDS011;64759;52.220;5.170;2023-05-07T03:21:02;16.17;;;12.68;;
76059;SDS011;64759;52.220;5.170;2023-05-07T03:23:28;13.88;;;12.10;;
76059;SDS011;64759;52.220;5.170;2023-05-07T03:25:53;15.13;;;11.93;;
76059;SDS011;64759;52.220;5.170;2023-05-07T03:28:18;13.88;;;12.45;;
76059;SDS011;64759;52.220;5.170;2023-05-07T03:30:50;14.57;;;13.07;;
76059;SDS011;64759;52.220;5.170;2023-05-07T03:33:16;16.30;;;12.68;;
76059;SDS011;64759;52.220;5.170;2023-05-07T03:35:41;15.45;;;13.85;;
76059;SDS011;64759;52.220;5.170;2023-05-07T03:38:07;17.75;;;12.93;;
76059;SDS011;64759;52.220;5.170;2023-05-07T03:40:34;14.40;;;12.50;;
76059;SDS011;64759;52.220;5.170;2023-05-07T03:43:01;21.17;;;14.13;;
76059;SDS011;64759;52.220;5.170;2023-05-07T03:45:30;17.98;;;14.82;;
76059;SDS011;64759;52.220;5.170;2023-05-07T03:48:05;20.75;;;15.10;;
76059;SDS011;64759;52.220;5.170;2023-05-07T03:50:30;18.48;;;13.85;;
76059;SDS011;64759;52.220;5.170;2023-05-07T03:52:56;17.60;;;15.32;;
76059;SDS011;64759;52.220;5.170;2023-05-07T03:55:22;20.15;;;14.82;;
76059;SDS011;64759;52.220;5.170;2023-05-07T03:57:53;17.83;;;15.00;;
76059;SDS011;64759;52.220;5.170;2023-05-07T04:00:19;16.40;;;14.48;;
76059;SDS011;64759;52.220;5.170;2023-05-07T04:02:48;17.52;;;14.38;;
76059;SDS011;64759;52.220;5.170;2023-05-07T04:05:17;17.23;;;14.15;;
76059;SDS011;64759;52.220;5.170;2023-05-07T04:07:45;21.55;;;15.30;;
76059;SDS011;64759;52.220;5.170;2023-05-07T04:10:12;16.83;;;15.10;;
76059;SDS011;64759;52.220;5.170;2023-05-07T04:12:41;16.40;;;14.02;;
76059;SDS011;64759;52.220;5.170;2023-05-07T04:15:08;17.77;;;14.30;;
76059;SDS011;64759;52.220;5.170;2023-05-07T04:17:35;17.00;;;14.57;;
76059;SDS011;64759;52.220;5.170;2023-05-07T04:20:02;20.45;;;14.88;;
76059;SDS011;64759;52.220;5.170;2023-05-07T04:22:29;19.80;;;16.03;;
76059;SDS011;64759;52.220;5.170;2023-05-07T04:24:55;20.63;;;15.60;;
76059;SDS011;64759;52.220;5.170;2023-05-07T04:27:21;18.88;;;15.38;;
76059;SDS011;64759;52.220;5.170;2023-05-07T04:29:47;17.70;;;15.55;;
76059;SDS011;64759;52.220;5.170;2023-05-07T04:32:13;19.02;;;15.18;;
76059;SDS011;64759;52.220;5.170;2023-05-07T04:34:39;19.15;;;16.17;;
76059;SDS011;64759;52.220;5.170;2023-05-07T04:37:06;22.15;;;15.48;;
76059;SDS011;64759;52.220;5.170;2023-05-07T04:39:32;29.60;;;23.95;;
76059;SDS011;64759;52.220;5.170;2023-05-07T04:41:57;19.67;;;15.75;;
76059;SDS011;64759;52.220;5.170;2023-05-07T04:44:23;17.90;;;15.82;;
76059;SDS011;64759;52.220;5.170;2023-05-07T04:46:49;19.92;;;15.77;;
76059;SDS011;64759;52.220;5.170;2023-05-07T04:49:15;18.48;;;14.98;;
76059;SDS011;64759;52.220;5.170;2023-05-07T04:51:41;14.98;;;13.35;;
76059;SDS011;64759;52.220;5.170;2023-05-07T04:54:09;14.60;;;12.77;;
76059;SDS011;64759;52.220;5.170;2023-05-07T04:56:35;14.75;;;12.70;;
76059;SDS011;64759;52.220;5.170;2023-05-07T04:59:01;16.38;;;12.18;;
76059;SDS011;64759;52.220;5.170;2023-05-07T05:01:27;13.38;;;11.90;;
76059;SDS011;64759;52.220;5.170;2023-05-07T05:03:53;15.02;;;13.07;;
76059;SDS011;64759;52.220;5.170;2023-05-07T05:06:19;13.55;;;11.90;;
76059;SDS011;64759;52.220;5.170;2023-05-07T05:08:44;15.68;;;11.20;;
76059;SDS011;64759;52.220;5.170;2023-05-07T05:11:10;12.68;;;11.38;;
76059;SDS011;64759;52.220;5.170;2023-05-07T05:13:37;15.18;;;12.30;;
76059;SDS011;64759;52.220;5.170;2023-05-07T05:16:09;13.73;;;11.70;;
76059;SDS011;64759;52.220;5.170;2023-05-07T05:18:36;13.50;;;12.05;;
76059;SDS011;64759;52.220;5.170;2023-05-07T05:21:02;16.65;;;12.38;;
76059;SDS011;64759;52.220;5.170;2023-05-07T05:23:28;14.68;;;12.15;;
76059;SDS011;64759;52.220;5.170;2023-05-07T05:25:57;17.65;;;12.93;;
76059;SDS011;64759;52.220;5.170;2023-05-07T05:28:24;15.10;;;12.32;;
76059;SDS011;64759;52.220;5.170;2023-05-07T05:30:50;16.55;;;13.20;;
76059;SDS011;64759;52.220;5.170;2023-05-07T05:33:16;15.57;;;12.45;;
76059;SDS011;64759;52.220;5.170;2023-05-07T05:35:42;18.58;;;13.02;;
76059;SDS011;64759;52.220;5.170;2023-05-07T05:38:10;17.67;;;13.43;;
76059;SDS011;64759;52.220;5.170;2023-05-07T05:40:37;16.10;;;13.82;;
76059;SDS011;64759;52.220;5.170;2023-05-07T05:43:02;14.02;;;12.23;;
76059;SDS011;64759;52.220;5.170;2023-05-07T05:45:29;15.32;;;13.20;;
76059;SDS011;64759;52.220;5.170;2023-05-07T05:47:55;16.85;;;13.50;;
76059;SDS011;64759;52.220;5.170;2023-05-07T05:50:23;18.48;;;13.90;;
76059;SDS011;64759;52.220;5.170;2023-05-07T05:52:49;18.65;;;14.35;;
76059;SDS011;64759;52.220;5.170;2023-05-07T05:55:16;16.13;;;13.45;;
76059;SDS011;64759;52.220;5.170;2023-05-07T05:57:41;20.65;;;14.02;;
76059;SDS011;64759;52.220;5.170;2023-05-07T06:00:08;17.25;;;14.05;;
76059;SDS011;64759;52.220;5.170;2023-05-07T06:02:43;18.10;;;14.13;;
76059;SDS011;64759;52.220;5.170;2023-05-07T06:05:11;20.15;;;13.75;;
76059;SDS011;64759;52.220;5.170;2023-05-07T06:07:36;19.42;;;13.63;;
76059;SDS011;64759;52.220;5.170;2023-05-07T06:10:02;19.23;;;15.05;;
76059;SDS011;64759;52.220;5.170;2023-05-07T06:12:30;22.77;;;15.02;;
76059;SDS011;64759;52.220;5.170;2023-05-07T06:14:55;22.92;;;16.95;;
76059;SDS011;64759;52.220;5.170;2023-05-07T06:17:21;23.65;;;15.48;;
76059;SDS011;64759;52.220;5.170;2023-05-07T06:19:49;19.25;;;16.52;;
76059;SDS011;64759;52.220;5.170;2023-05-07T06:22:17;38.80;;;18.52;;
76059;SDS011;64759;52.220;5.170;2023-05-07T06:24:42;32.00;;;21.42;;
76059;SDS011;64759;52.220;5.170;2023-05-07T06:27:08;26.13;;;21.65;;
76059;SDS011;64759;52.220;5.170;2023-05-07T06:29:34;30.42;;;22.52;;
76059;SDS011;64759;52.220;5.170;2023-05-07T06:34:33;33.53;;;25.55;;
76059;SDS011;64759;52.220;5.170;2023-05-07T06:36:59;33.35;;;24.35;;
76059;SDS011;64759;52.220;5.170;2023-05-07T06:39:42;28.02;;;24.42;;
76059;SDS011;64759;52.220;5.170;2023-05-07T06:42:08;30.60;;;24.67;;
76059;SDS011;64759;52.220;5.170;2023-05-07T06:44:39;33.20;;;26.48;;
76059;SDS011;64759;52.220;5.170;2023-05-07T06:47:08;30.50;;;26.13;;
76059;SDS011;64759;52.220;5.170;2023-05-07T06:49:34;30.45;;;24.42;;
76059;SDS011;64759;52.220;5.170;2023-05-07T06:52:00;34.80;;;26.55;;
76059;SDS011;64759;52.220;5.170;2023-05-07T06:54:25;28.52;;;23.45;;
76059;SDS011;64759;52.220;5.170;2023-05-07T06:56:51;30.23;;;22.30;;
76059;SDS011;64759;52.220;5.170;2023-05-07T06:59:17;23.10;;;19.65;;
76059;SDS011;64759;52.220;5.170;2023-05-07T07:01:44;22.67;;;20.27;;
76059;SDS011;64759;52.220;5.170;2023-05-07T07:04:11;27.00;;;20.75;;
76059;SDS011;64759;52.220;5.170;2023-05-07T07:06:39;22.23;;;19.50;;
76059;SDS011;64759;52.220;5.170;2023-05-07T07:09:08;21.73;;;18.17;;
76059;SDS011;64759;52.220;5.170;2023-05-07T07:11:34;26.98;;;18.63;;
76059;SDS011;64759;52.220;5.170;2023-05-07T07:14:00;22.05;;;18.55;;
76059;SDS011;64759;52.220;5.170;2023-05-07T07:16:27;21.75;;;17.95;;
76059;SDS011;64759;52.220;5.170;2023-05-07T07:18:54;22.23;;;18.65;;
76059;SDS011;64759;52.220;5.170;2023-05-07T07:21:19;23.88;;;18.15;;
76059;SDS011;64759;52.220;5.170;2023-05-07T07:23:46;20.02;;;17.92;;
76059;SDS011;64759;52.220;5.170;2023-05-07T07:26:12;19.50;;;17.08;;
76059;SDS011;64759;52.220;5.170;2023-05-07T07:28:44;22.25;;;18.10;;
76059;SDS011;64759;52.220;5.170;2023-05-07T07:31:11;27.80;;;19.13;;
76059;SDS011;64759;52.220;5.170;2023-05-07T07:33:37;20.67;;;17.70;;
76059;SDS011;64759;52.220;5.170;2023-05-07T07:36:05;20.98;;;18.60;;
76059;SDS011;64759;52.220;5.170;2023-05-07T07:38:32;20.13;;;17.77;;
76059;SDS011;64759;52.220;5.170;2023-05-07T07:40:58;21.67;;;19.27;;
76059;SDS011;64759;52.220;5.170;2023-05-07T07:43:23;50.63;;;20.33;;
76059;SDS011;64759;52.220;5.170;2023-05-07T07:45:49;25.73;;;19.83;;
76059;SDS011;64759;52.220;5.170;2023-05-07T07:48:15;20.77;;;18.60;;
76059;SDS011;64759;52.220;5.170;2023-05-07T07:50:42;21.58;;;19.05;;
76059;SDS011;64759;52.220;5.170;2023-05-07T07:53:07;21.45;;;18.80;;
76059;SDS011;64759;52.220;5.170;2023-05-07T07:55:37;19.30;;;17.30;;
76059;SDS011;64759;52.220;5.170;2023-05-07T07:58:03;20.17;;;17.08;;
76059;SDS011;64759;52.220;5.170;2023-05-07T08:00:29;22.38;;;18.13;;
76059;SDS011;64759;52.220;5.170;2023-05-07T08:02:55;19.08;;;17.13;;
76059;SDS011;64759;52.220;5.170;2023-05-07T08:05:25;21.95;;;18.55;;
76059;SDS011;64759;52.220;5.170;2023-05-07T08:07:52;22.98;;;19.33;;
76059;SDS011;64759;52.220;5.170;2023-05-07T08:10:23;20.73;;;18.55;;
76059;SDS011;64759;52.220;5.170;2023-05-07T08:12:54;20.88;;;18.67;;
76059;SDS011;64759;52.220;5.170;2023-05-07T08:15:19;24.17;;;19.58;;
76059;SDS011;64759;52.220;5.170;2023-05-07T08:17:45;22.63;;;18.65;;
76059;SDS011;64759;52.220;5.170;2023-05-07T08:20:13;22.05;;;18.80;;
76059;SDS011;64759;52.220;5.170;2023-05-07T08:22:39;21.77;;;18.35;;
76059;SDS011;64759;52.220;5.170;2023-05-07T08:25:05;22.42;;;19.67;;
76059;SDS011;64759;52.220;5.170;2023-05-07T08:27:31;19.98;;;17.92;;
76059;SDS011;64759;52.220;5.170;2023-05-07T08:29:57;21.63;;;16.90;;
76059;SDS011;64759;52.220;5.170;2023-05-07T08:32:23;22.35;;;17.88;;
76059;SDS011;64759;52.220;5.170;2023-05-07T08:34:49;19.95;;;17.85;;
76059;SDS011;64759;52.220;5.170;2023-05-07T08:37:15;22.63;;;19.10;;
76059;SDS011;64759;52.220;5.170;2023-05-07T08:39:41;21.27;;;19.08;;
76059;SDS011;64759;52.220;5.170;2023-05-07T08:42:13;24.30;;;19.60;;
76059;SDS011;64759;52.220;5.170;2023-05-07T08:44:42;22.85;;;17.75;;
76059;SDS011;64759;52.220;5.170;2023-05-07T08:47:12;19.58;;;17.58;;
76059;SDS011;64759;52.220;5.170;2023-05-07T08:49:38;18.75;;;16.42;;
76059;SDS011;64759;52.220;5.170;2023-05-07T08:52:06;18.85;;;15.93;;
76059;SDS011;64759;52.220;5.170;2023-05-07T08:54:32;18.20;;;15.15;;
76059;SDS011;64759;52.220;5.170;2023-05-07T08:57:00;18.48;;;15.25;;
76059;SDS011;64759;52.220;5.170;2023-05-07T08:59:26;17.02;;;14.40;;
76059;SDS011;64759;52.220;5.170;2023-05-07T09:01:53;16.25;;;14.45;;
76059;SDS011;64759;52.220;5.170;2023-05-07T09:04:19;19.05;;;14.63;;
76059;SDS011;64759;52.220;5.170;2023-05-07T09:06:45;16.02;;;14.40;;
76059;SDS011;64759;52.220;5.170;2023-05-07T09:09:14;15.33;;;13.37;;
76059;SDS011;64759;52.220;5.170;2023-05-07T09:14:12;14.63;;;13.13;;
76059;SDS011;64759;52.220;5.170;2023-05-07T09:16:42;14.68;;;10.30;;
76059;SDS011;64759;52.220;5.170;2023-05-07T09:19:08;13.13;;;11.82;;
76059;SDS011;64759;52.220;5.170;2023-05-07T09:21:34;12.27;;;10.68;;
76059;SDS011;64759;52.220;5.170;2023-05-07T09:24:05;11.82;;;10.10;;
76059;SDS011;64759;52.220;5.170;2023-05-07T09:26:38;13.98;;;9.60;;
76059;SDS011;64759;52.220;5.170;2023-05-07T09:29:05;11.50;;;9.07;;
76059;SDS011;64759;52.220;5.170;2023-05-07T09:31:31;13.38;;;10.68;;
76059;SDS011;64759;52.220;5.170;2023-05-07T09:33:57;13.88;;;10.52;;
76059;SDS011;64759;52.220;5.170;2023-05-07T09:36:25;11.70;;;10.50;;
76059;SDS011;64759;52.220;5.170;2023-05-07T09:38:52;14.68;;;11.45;;
76059;SDS011;64759;52.220;5.170;2023-05-07T09:41:18;12.85;;;10.63;;
76059;SDS011;64759;52.220;5.170;2023-05-07T09:44:10;13.00;;;9.93;;
76059;SDS011;64759;52.220;5.170;2023-05-07T09:46:44;13.18;;;10.77;;
76059;SDS011;64759;52.220;5.170;2023-05-07T09:49:23;11.00;;;9.90;;
76059;SDS011;64759;52.220;5.170;2023-05-07T09:51:52;11.52;;;8.93;;
76059;SDS011;64759;52.220;5.170;2023-05-07T09:54:21;11.93;;;9.02;;
76059;SDS011;64759;52.220;5.170;2023-05-07T09:56:50;10.45;;;8.88;;
76059;SDS011;64759;52.220;5.170;2023-05-07T09:59:18;9.65;;;8.30;;
76059;SDS011;64759;52.220;5.170;2023-05-07T10:01:46;12.10;;;8.77;;
76059;SDS011;64759;52.220;5.170;2023-05-07T10:04:12;12.60;;;8.52;;
76059;SDS011;64759;52.220;5.170;2023-05-07T10:06:44;9.80;;;7.45;;
76059;SDS011;64759;52.220;5.170;2023-05-07T10:09:10;8.50;;;7.53;;
76059;SDS011;64759;52.220;5.170;2023-05-07T10:11:37;15.48;;;7.60;;
76059;SDS011;64759;52.220;5.170;2023-05-07T10:14:05;9.82;;;7.65;;
76059;SDS011;64759;52.220;5.170;2023-05-07T10:16:34;9.20;;;8.07;;
76059;SDS011;64759;52.220;5.170;2023-05-07T10:19:03;10.05;;;8.48;;
76059;SDS011;64759;52.220;5.170;2023-05-07T10:21:30;11.05;;;8.27;;
76059;SDS011;64759;52.220;5.170;2023-05-07T10:24:04;14.43;;;7.95;;
76059;SDS011;64759;52.220;5.170;2023-05-07T10:26:38;10.47;;;8.53;;
76059;SDS011;64759;52.220;5.170;2023-05-07T10:32:27;9.10;;;8.20;;
76059;SDS011;64759;52.220;5.170;2023-05-07T10:35:02;11.05;;;7.85;;
76059;SDS011;64759;52.220;5.170;2023-05-07T10:37:31;12.38;;;9.15;;
76059;SDS011;64759;52.220;5.170;2023-05-07T10:39:58;11.52;;;7.13;;
76059;SDS011;64759;52.220;5.170;2023-05-07T10:42:27;10.52;;;6.18;;
76059;SDS011;64759;52.220;5.170;2023-05-07T10:44:54;10.43;;;7.82;;
76059;SDS011;64759;52.220;5.170;2023-05-07T10:47:25;7.43;;;6.50;;
76059;SDS011;64759;52.220;5.170;2023-05-07T10:52:26;9.63;;;6.72;;
76059;SDS011;64759;52.220;5.170;2023-05-07T10:55:21;9.18;;;6.35;;
76059;SDS011;64759;52.220;5.170;2023-05-07T10:58:02;7.47;;;5.45;;
76059;SDS011;64759;52.220;5.170;2023-05-07T11:00:47;8.45;;;6.15;;
76059;SDS011;64759;52.220;5.170;2023-05-07T11:03:24;15.48;;;5.63;;
76059;SDS011;64759;52.220;5.170;2023-05-07T11:06:16;7.93;;;4.80;;
76059;SDS011;64759;52.220;5.170;2023-05-07T11:11:19;13.43;;;4.88;;
76059;SDS011;64759;52.220;5.170;2023-05-07T11:13:50;7.13;;;3.60;;
76059;SDS011;64759;52.220;5.170;2023-05-07T11:16:32;9.90;;;3.42;;
76059;SDS011;64759;52.220;5.170;2023-05-07T11:19:09;7.20;;;3.35;;
76059;SDS011;64759;52.220;5.170;2023-05-07T11:21:41;6.65;;;3.33;;
76059;SDS011;64759;52.220;5.170;2023-05-07T11:24:27;8.73;;;2.80;;
76059;SDS011;64759;52.220;5.170;2023-05-07T11:26:57;6.00;;;2.50;;
76059;SDS011;64759;52.220;5.170;2023-05-07T11:29:25;6.35;;;3.03;;
76059;SDS011;64759;52.220;5.170;2023-05-07T11:31:56;7.30;;;3.30;;
76059;SDS011;64759;52.220;5.170;2023-05-07T11:34:26;6.57;;;3.55;;
76059;SDS011;64759;52.220;5.170;2023-05-07T11:36:54;5.68;;;3.75;;
76059;SDS011;64759;52.220;5.170;2023-05-07T11:39:28;4.80;;;3.10;;
76059;SDS011;64759;52.220;5.170;2023-05-07T11:41:56;7.10;;;3.75;;
76059;SDS011;64759;52.220;5.170;2023-05-07T11:44:23;5.13;;;2.70;;
76059;SDS011;64759;52.220;5.170;2023-05-07T11:46:49;6.38;;;2.42;;
76059;SDS011;64759;52.220;5.170;2023-05-07T11:49:15;5.38;;;2.92;;
76059;SDS011;64759;52.220;5.170;2023-05-07T11:51:40;5.47;;;3.05;;
76059;SDS011;64759;52.220;5.170;2023-05-07T11:54:07;6.65;;;3.03;;
76059;SDS011;64759;52.220;5.170;2023-05-07T11:56:34;5.38;;;2.78;;
76059;SDS011;64759;52.220;5.170;2023-05-07T11:59:03;4.55;;;2.50;;
76059;SDS011;64759;52.220;5.170;2023-05-07T12:01:29;6.70;;;2.35;;
76059;SDS011;64759;52.220;5.170;2023-05-07T12:03:55;5.53;;;2.50;;
76059;SDS011;64759;52.220;5.170;2023-05-07T12:06:20;9.85;;;3.85;;
76059;SDS011;64759;52.220;5.170;2023-05-07T12:08:45;9.13;;;2.80;;
76059;SDS011;64759;52.220;5.170;2023-05-07T12:11:23;6.68;;;3.03;;
76059;SDS011;64759;52.220;5.170;2023-05-07T12:13:50;6.35;;;3.13;;
76059;SDS011;64759;52.220;5.170;2023-05-07T12:16:17;7.35;;;2.97;;
76059;SDS011;64759;52.220;5.170;2023-05-07T12:18:43;4.68;;;2.80;;
76059;SDS011;64759;52.220;5.170;2023-05-07T12:21:09;5.00;;;2.67;;
76059;SDS011;64759;52.220;5.170;2023-05-07T12:23:39;5.25;;;2.85;;
76059;SDS011;64759;52.220;5.170;2023-05-07T12:26:05;6.65;;;3.22;;
76059;SDS011;64759;52.220;5.170;2023-05-07T12:28:31;6.25;;;3.10;;
76059;SDS011;64759;52.220;5.170;2023-05-07T12:31:02;7.50;;;3.03;;
76059;SDS011;64759;52.220;5.170;2023-05-07T12:33:28;8.35;;;3.45;;
76059;SDS011;64759;52.220;5.170;2023-05-07T12:35:56;4.63;;;2.40;;
76059;SDS011;64759;52.220;5.170;2023-05-07T12:38:22;7.28;;;3.20;;
76059;SDS011;64759;52.220;5.170;2023-05-07T12:40:48;5.43;;;3.20;;
76059;SDS011;64759;52.220;5.170;2023-05-07T12:43:25;5.15;;;3.10;;
76059;SDS011;64759;52.220;5.170;2023-05-07T12:45:54;8.57;;;3.88;;
76059;SDS011;64759;52.220;5.170;2023-05-07T12:48:22;7.03;;;3.70;;
76059;SDS011;64759;52.220;5.170;2023-05-07T12:50:51;8.90;;;4.20;;
76059;SDS011;64759;52.220;5.170;2023-05-07T12:53:20;5.30;;;3.15;;
76059;SDS011;64759;52.220;5.170;2023-05-07T12:55:49;7.93;;;4.70;;
76059;SDS011;64759;52.220;5.170;2023-05-07T12:58:29;8.07;;;3.42;;
76059;SDS011;64759;52.220;5.170;2023-05-07T13:00:57;9.90;;;4.05;;
76059;SDS011;64759;52.220;5.170;2023-05-07T13:03:25;8.40;;;4.03;;
76059;SDS011;64759;52.220;5.170;2023-05-07T13:05:51;4.38;;;2.90;;
76059;SDS011;64759;52.220;5.170;2023-05-07T13:08:29;8.23;;;3.38;;
76059;SDS011;64759;52.220;5.170;2023-05-07T13:10:59;8.25;;;3.55;;
76059;SDS011;64759;52.220;5.170;2023-05-07T13:13:34;8.68;;;3.97;;
76059;SDS011;64759;52.220;5.170;2023-05-07T13:16:00;7.15;;;3.75;;
76059;SDS011;64759;52.220;5.170;2023-05-07T13:18:29;13.05;;;4.53;;
76059;SDS011;64759;52.220;5.170;2023-05-07T13:20:55;6.70;;;4.10;;
76059;SDS011;64759;52.220;5.170;2023-05-07T13:23:21;8.63;;;3.80;;
76059;SDS011;64759;52.220;5.170;2023-05-07T13:25:46;7.55;;;4.78;;
76059;SDS011;64759;52.220;5.170;2023-05-07T13:28:13;8.82;;;4.85;;
76059;SDS011;64759;52.220;5.170;2023-05-07T13:30:39;12.40;;;5.60;;
76059;SDS011;64759;52.220;5.170;2023-05-07T13:33:05;12.50;;;5.43;;
76059;SDS011;64759;52.220;5.170;2023-05-07T13:35:31;8.13;;;4.90;;
76059;SDS011;64759;52.220;5.170;2023-05-07T13:37:56;8.85;;;5.60;;
76059;SDS011;64759;52.220;5.170;2023-05-07T13:40:22;10.30;;;5.25;;
76059;SDS011;64759;52.220;5.170;2023-05-07T13:42:48;11.70;;;5.72;;
76059;SDS011;64759;52.220;5.170;2023-05-07T13:45:14;14.55;;;6.78;;
76059;SDS011;64759;52.220;5.170;2023-05-07T13:47:41;11.52;;;6.97;;
76059;SDS011;64759;52.220;5.170;2023-05-07T13:50:09;9.48;;;6.68;;
76059;SDS011;64759;52.220;5.170;2023-05-07T13:52:36;8.63;;;6.63;;
76059;SDS011;64759;52.220;5.170;2023-05-07T13:55:02;9.88;;;6.05;;
76059;SDS011;64759;52.220;5.170;2023-05-07T13:57:28;12.27;;;7.25;;
76059;SDS011;64759;52.220;5.170;2023-05-07T13:59:55;13.65;;;7.80;;
76059;SDS011;64759;52.220;5.170;2023-05-07T14:02:21;11.73;;;7.47;;
76059;SDS011;64759;52.220;5.170;2023-05-07T14:04:47;9.07;;;7.45;;
76059;SDS011;64759;52.220;5.170;2023-05-07T14:07:12;12.65;;;7.28;;
76059;SDS011;64759;52.220;5.170;2023-05-07T14:09:37;15.27;;;8.50;;
76059;SDS011;64759;52.220;5.170;2023-05-07T14:12:03;12.98;;;7.70;;
76059;SDS011;64759;52.220;5.170;2023-05-07T14:14:29;11.80;;;5.65;;
76059;SDS011;64759;52.220;5.170;2023-05-07T14:16:55;7.15;;;6.22;;
76059;SDS011;64759;52.220;5.170;2023-05-07T14:19:20;13.43;;;7.15;;
76059;SDS011;64759;52.220;5.170;2023-05-07T14:21:47;13.32;;;7.43;;
76059;SDS011;64759;52.220;5.170;2023-05-07T14:24:13;13.60;;;6.20;;
76059;SDS011;64759;52.220;5.170;2023-05-07T14:26:39;11.15;;;7.22;;
76059;SDS011;64759;52.220;5.170;2023-05-07T14:29:04;21.58;;;10.63;;
76059;SDS011;64759;52.220;5.170;2023-05-07T14:31:31;21.30;;;13.07;;
76059;SDS011;64759;52.220;5.170;2023-05-07T14:33:56;20.33;;;11.38;;
76059;SDS011;64759;52.220;5.170;2023-05-07T14:36:24;44.70;;;15.00;;
76059;SDS011;64759;52.220;5.170;2023-05-07T14:38:53;28.20;;;14.43;;
76059;SDS011;64759;52.220;5.170;2023-05-07T14:41:20;22.08;;;14.40;;
76059;SDS011;64759;52.220;5.170;2023-05-07T14:43:47;28.90;;;15.95;;